sensor_id;sensor_type;location;lat;lon;timestamp;pressure;altitude;pressure_sealevel;temperature;humidity
42003;BME280;27693;50.506;30.832;2022-09-21T00:00:47;99255.66;;;9.72;99.52
42003;BME280;27693;50.506;30.832;2022-09-21T00:01:50;99259.31;;;9.68;99.69
42003;BME280;27693;50.506;30.832;2022-09-21T00:02:54;99261.08;;;9.68;99.75
42003;BME280;27693;50.506;30.832;2022-09-21T00:03:59;99254.29;;;9.65;99.92
42003;BME280;27693;50.506;30.832;2022-09-21T00:05:02;99255.11;;;9.66;100.00
42003;BME280;27693;50.506;30.832;2022-09-21T00:06:06;99253.37;;;9.66;99.92
42003;BME280;27693;50.506;30.832;2022-09-21T00:07:08;99256.11;;;9.63;100.00
42003;BME280;27693;50.506;30.832;2022-09-21T00:08:12;99254.42;;;9.62;100.00
42003;BME280;27693;50.506;30.832;2022-09-21T00:09:15;99257.41;;;9.54;100.00
42003;BME280;27693;50.506;30.832;2022-09-21T00:10:19;99258.19;;;9.56;100.00
42003;BME280;27693;50.506;30.832;2022-09-21T00:11:24;99256.28;;;9.60;100.00
42003;BME280;27693;50.506;30.832;2022-09-21T00:12:26;99248.31;;;9.63;100.00
42003;BME280;27693;50.506;30.832;2022-09-21T00:13:28;99249.48;;;9.57;100.00
42003;BME280;27693;50.506;30.832;2022-09-21T00:14:31;99247.72;;;9.58;100.00
42003;BME280;27693;50.506;30.832;2022-09-21T00:15:33;99253.98;;;9.54;100.00
42003;BME280;27693;50.506;30.832;2022-09-21T00:16:35;99257.49;;;9.53;100.00
42003;BME280;27693;50.506;30.832;2022-09-21T00:17:37;99257.49;;;9.53;100.00
42003;BME280;27693;50.506;30.832;2022-09-21T00:18:40;99250.45;;;9.55;100.00
42003;BME280;27693;50.506;30.832;2022-09-21T00:19:42;99250.62;;;9.52;100.00
42003;BME280;27693;50.506;30.832;2022-09-21T00:20:44;99247.11;;;9.53;100.00
42003;BME280;27693;50.506;30.832;2022-09-21T00:21:46;99248.10;;;9.50;100.00
42003;BME280;27693;50.506;30.832;2022-09-21T00:22:48;99244.73;;;9.48;100.00
42003;BME280;27693;50.506;30.832;2022-09-21T00:23:50;99249.92;;;9.48;100.00
42003;BME280;27693;50.506;30.832;2022-09-21T00:24:52;99245.42;;;9.52;100.00
42003;BME280;27693;50.506;30.832;2022-09-21T00:26:06;99249.62;;;9.54;100.00
42003;BME280;27693;50.506;30.832;2022-09-21T00:27:08;99238.55;;;9.51;100.00
42003;BME280;27693;50.506;30.832;2022-09-21T00:28:10;99245.73;;;9.46;100.00
42003;BME280;27693;50.506;30.832;2022-09-21T00:29:12;99247.41;;;9.47;100.00
42003;BME280;27693;50.506;30.832;2022-09-21T00:30:15;99246.72;;;9.43;100.00
42003;BME280;27693;50.506;30.832;2022-09-21T00:31:17;99251.75;;;9.46;100.00
42003;BME280;27693;50.506;30.832;2022-09-21T00:32:19;99247.55;;;9.43;100.00
42003;BME280;27693;50.506;30.832;2022-09-21T00:33:20;99246.55;;;9.46;100.00
42003;BME280;27693;50.506;30.832;2022-09-21T00:34:22;99248.16;;;9.49;100.00
42003;BME280;27693;50.506;30.832;2022-09-21T00:35:24;99248.16;;;9.49;100.00
42003;BME280;27693;50.506;30.832;2022-09-21T00:36:27;99249.70;;;9.53;100.00
42003;BME280;27693;50.506;30.832;2022-09-21T00:37:29;99237.72;;;9.50;100.00
42003;BME280;27693;50.506;30.832;2022-09-21T00:38:32;99247.55;;;9.43;100.00
42003;BME280;27693;50.506;30.832;2022-09-21T00:39:35;99245.03;;;9.42;100.00
42003;BME280;27693;50.506;30.832;2022-09-21T00:40:37;99241.36;;;9.46;100.00
42003;BME280;27693;50.506;30.832;2022-09-21T00:41:39;99240.45;;;9.47;100.00
42003;BME280;27693;50.506;30.832;2022-09-21T00:42:41;99239.67;;;9.45;100.00
42003;BME280;27693;50.506;30.832;2022-09-21T00:43:49;99233.73;;;9.43;100.00
42003;BME280;27693;50.506;30.832;2022-09-21T00:44:51;99241.83;;;9.37;100.00
42003;BME280;27693;50.506;30.832;2022-09-21T00:46:03;99244.26;;;9.40;100.00
42003;BME280;27693;50.506;30.832;2022-09-21T00:47:11;99242.22;;;9.47;100.00
42003;BME280;27693;50.506;30.832;2022-09-21T00:48:14;99237.77;;;9.49;100.00
42003;BME280;27693;50.506;30.832;2022-09-21T00:49:17;99241.75;;;9.56;100.00
42003;BME280;27693;50.506;30.832;2022-09-21T00:50:22;99238.55;;;9.51;100.00
42003;BME280;27693;50.506;30.832;2022-09-21T00:51:26;99241.14;;;9.51;100.00
42003;BME280;27693;50.506;30.832;2022-09-21T00:52:31;99246.20;;;9.54;100.00
42003;BME280;27693;50.506;30.832;2022-09-21T00:53:35;99240.36;;;9.49;100.00
42003;BME280;27693;50.506;30.832;2022-09-21T00:54:41;99238.68;;;9.48;100.00
42003;BME280;27693;50.506;30.832;2022-09-21T00:55:47;99245.73;;;9.46;100.00
42003;BME280;27693;50.506;30.832;2022-09-21T00:56:50;99239.67;;;9.45;100.00
42003;BME280;27693;50.506;30.832;2022-09-21T00:57:54;99235.25;;;9.47;100.00
42003;BME280;27693;50.506;30.832;2022-09-21T00:58:57;99239.63;;;9.47;100.00
42003;BME280;27693;50.506;30.832;2022-09-21T01:00:03;99241.91;;;9.53;100.00
42003;BME280;27693;50.506;30.832;2022-09-21T01:01:05;99236.63;;;9.54;100.00
42003;BME280;27693;50.506;30.832;2022-09-21T01:02:07;99229.63;;;9.56;100.00
42003;BME280;27693;50.506;30.832;2022-09-21T01:03:11;99239.92;;;9.58;100.00
42003;BME280;27693;50.506;30.832;2022-09-21T01:04:15;99230.75;;;9.51;100.00
42003;BME280;27693;50.506;30.832;2022-09-21T01:05:17;99231.53;;;9.53;100.00
42003;BME280;27693;50.506;30.832;2022-09-21T01:06:20;99233.27;;;9.52;100.00
42003;BME280;27693;50.506;30.832;2022-09-21T01:07:24;99231.83;;;9.47;100.00
42003;BME280;27693;50.506;30.832;2022-09-21T01:08:28;99230.45;;;9.39;100.00
42003;BME280;27693;50.506;30.832;2022-09-21T01:09:31;99233.05;;;9.39;100.00
42003;BME280;27693;50.506;30.832;2022-09-21T01:15:01;99228.98;;;9.51;100.00
42003;BME280;27693;50.506;30.832;2022-09-21T01:16:15;99230.73;;;9.68;100.00
42003;BME280;27693;50.506;30.832;2022-09-21T01:19:13;99234.13;;;9.53;100.00
42003;BME280;27693;50.506;30.832;2022-09-21T01:21:32;99229.37;;;9.61;100.00
42003;BME280;27693;50.506;30.832;2022-09-21T01:24:31;99234.28;;;9.67;99.92
42003;BME280;27693;50.506;30.832;2022-09-21T01:25:57;99226.31;;;9.70;99.76
42003;BME280;27693;50.506;30.832;2022-09-21T01:29:36;99222.03;;;9.69;98.98
42003;BME280;27693;50.506;30.832;2022-09-21T01:30:39;99229.46;;;9.77;99.07
42003;BME280;27693;50.506;30.832;2022-09-21T01:32:07;99225.78;;;9.81;98.85
42003;BME280;27693;50.506;30.832;2022-09-21T01:33:16;99226.92;;;9.75;98.82
42003;BME280;27693;50.506;30.832;2022-09-21T01:34:36;99237.17;;;9.79;98.86
42003;BME280;27693;50.506;30.832;2022-09-21T01:35:45;99232.42;;;9.69;99.07
42003;BME280;27693;50.506;30.832;2022-09-21T01:36:49;99229.09;;;9.67;99.24
42003;BME280;27693;50.506;30.832;2022-09-21T01:37:58;99231.83;;;9.64;99.34
42003;BME280;27693;50.506;30.832;2022-09-21T01:39:06;99235.94;;;9.68;99.39
42003;BME280;27693;50.506;30.832;2022-09-21T01:40:22;99236.63;;;9.72;99.31
42003;BME280;27693;50.506;30.832;2022-09-21T01:41:27;99241.08;;;9.70;99.31
42003;BME280;27693;50.506;30.832;2022-09-21T01:42:33;99228.40;;;9.64;99.56
42003;BME280;27693;50.506;30.832;2022-09-21T01:43:41;99236.63;;;9.72;99.59
42003;BME280;27693;50.506;30.832;2022-09-21T01:44:46;99237.80;;;9.66;99.40
42003;BME280;27693;50.506;30.832;2022-09-21T01:45:51;99230.73;;;9.68;99.42
42003;BME280;27693;50.506;30.832;2022-09-21T01:46:55;99237.31;;;9.75;99.47
42003;BME280;27693;50.506;30.832;2022-09-21T01:48:00;99233.58;;;9.81;99.18
42003;BME280;27693;50.506;30.832;2022-09-21T01:49:08;99239.86;;;9.77;98.77
42003;BME280;27693;50.506;30.832;2022-09-21T01:50:10;99240.14;;;9.88;98.92
42003;BME280;27693;50.506;30.832;2022-09-21T01:51:14;99243.57;;;9.89;98.44
42003;BME280;27693;50.506;30.832;2022-09-21T01:52:24;99241.14;;;9.86;98.37
42003;BME280;27693;50.506;30.832;2022-09-21T01:53:41;99240.69;;;9.78;98.45
42003;BME280;27693;50.506;30.832;2022-09-21T01:54:49;99241.54;;;9.78;98.62
42003;BME280;27693;50.506;30.832;2022-09-21T01:55:56;99237.17;;;9.79;98.77
42003;BME280;27693;50.506;30.832;2022-09-21T01:57:09;99242.05;;;9.85;98.60
42003;BME280;27693;50.506;30.832;2022-09-21T01:59:21;99241.59;;;9.77;98.66
42003;BME280;27693;50.506;30.832;2022-09-21T02:00:25;99246.73;;;9.78;98.89
42003;BME280;27693;50.506;30.832;2022-09-21T02:01:30;99244.36;;;9.73;99.00
42003;BME280;27693;50.506;30.832;2022-09-21T02:02:47;99241.91;;;9.70;99.07
42003;BME280;27693;50.506;30.832;2022-09-21T02:03:43;99237.80;;;9.66;99.05
42003;BME280;27693;50.506;30.832;2022-09-21T02:04:45;99233.59;;;9.64;99.19
42003;BME280;27693;50.506;30.832;2022-09-21T02:05:47;99234.42;;;9.64;99.19
42003;BME280;27693;50.506;30.832;2022-09-21T02:06:50;99234.64;;;9.59;99.47
42003;BME280;27693;50.506;30.832;2022-09-21T02:07:53;99240.61;;;9.62;99.56
42003;BME280;27693;50.506;30.832;2022-09-21T02:08:56;99237.02;;;9.64;99.49
42003;BME280;27693;50.506;30.832;2022-09-21T02:09:59;99234.88;;;9.72;99.60
42003;BME280;27693;50.506;30.832;2022-09-21T02:11:04;99237.00;;;9.82;99.37
42003;BME280;27693;50.506;30.832;2022-09-21T02:12:06;99240.38;;;9.84;98.95
42003;BME280;27693;50.506;30.832;2022-09-21T02:13:09;99238.55;;;9.86;98.52
42003;BME280;27693;50.506;30.832;2022-09-21T02:14:14;99235.26;;;9.82;98.52
42003;BME280;27693;50.506;30.832;2022-09-21T02:15:19;99235.03;;;9.87;98.44
42003;BME280;27693;50.506;30.832;2022-09-21T02:16:45;99243.74;;;9.86;98.26
42003;BME280;27693;50.506;30.832;2022-09-21T02:19:14;99237.48;;;9.72;98.46
42003;BME280;27693;50.506;30.832;2022-09-21T02:20:19;99228.92;;;9.70;98.56
42003;BME280;27693;50.506;30.832;2022-09-21T02:23:03;99239.53;;;9.66;98.74
42003;BME280;27693;50.506;30.832;2022-09-21T02:26:38;99239.00;;;9.77;98.58
42003;BME280;27693;50.506;30.832;2022-09-21T02:28:03;99244.19;;;9.77;98.40
42003;BME280;27693;50.506;30.832;2022-09-21T02:30:27;99248.94;;;9.86;98.07
42003;BME280;27693;50.506;30.832;2022-09-21T02:33:15;99250.31;;;9.93;97.69
42003;BME280;27693;50.506;30.832;2022-09-21T02:34:34;99247.39;;;9.82;97.61
42003;BME280;27693;50.506;30.832;2022-09-21T02:35:47;99248.02;;;9.69;98.19
42003;BME280;27693;50.506;30.832;2022-09-21T02:36:54;99254.67;;;9.75;98.31
42003;BME280;27693;50.506;30.832;2022-09-21T02:39:16;99247.70;;;9.75;97.91
42003;BME280;27693;50.506;30.832;2022-09-21T02:40:25;99250.39;;;9.74;97.78
42003;BME280;27693;50.506;30.832;2022-09-21T02:41:32;99253.84;;;9.74;98.03
42003;BME280;27693;50.506;30.832;2022-09-21T02:42:37;99247.19;;;9.69;97.98
42003;BME280;27693;50.506;30.832;2022-09-21T02:44:00;99248.18;;;9.66;98.22
42003;BME280;27693;50.506;30.832;2022-09-21T02:45:16;99255.06;;;9.67;98.26
42003;BME280;27693;50.506;30.832;2022-09-21T02:46:27;99249.70;;;9.70;97.96
42003;BME280;27693;50.506;30.832;2022-09-21T02:47:39;99255.06;;;9.67;98.21
42003;BME280;27693;50.506;30.832;2022-09-21T02:48:50;99264.81;;;9.62;98.39
42003;BME280;27693;50.506;30.832;2022-09-21T02:50:00;99252.91;;;9.58;98.65
42003;BME280;27693;50.506;30.832;2022-09-21T02:51:09;99262.13;;;9.46;99.29
42003;BME280;27693;50.506;30.832;2022-09-21T02:52:11;99259.31;;;9.51;99.51
42003;BME280;27693;50.506;30.832;2022-09-21T02:53:17;99261.22;;;9.47;99.51
42003;BME280;27693;50.506;30.832;2022-09-21T02:54:22;99258.54;;;9.49;99.63
42003;BME280;27693;50.506;30.832;2022-09-21T02:55:25;99257.49;;;9.53;99.46
42003;BME280;27693;50.506;30.832;2022-09-21T02:56:31;99260.84;;;9.55;99.34
42003;BME280;27693;50.506;30.832;2022-09-21T02:57:34;99267.58;;;9.59;99.31
42003;BME280;27693;50.506;30.832;2022-09-21T02:58:40;99267.72;;;9.56;99.23
42003;BME280;27693;50.506;30.832;2022-09-21T02:59:44;99259.18;;;9.54;99.31
42003;BME280;27693;50.506;30.832;2022-09-21T03:00:46;99259.92;;;9.56;99.32
42003;BME280;27693;50.506;30.832;2022-09-21T03:01:49;99265.28;;;9.53;99.29
42003;BME280;27693;50.506;30.832;2022-09-21T03:02:52;99259.75;;;9.41;99.78
42003;BME280;27693;50.506;30.832;2022-09-21T03:03:54;99262.30;;;9.43;100.00
42003;BME280;27693;50.506;30.832;2022-09-21T03:04:57;99263.05;;;9.45;100.00
42003;BME280;27693;50.506;30.832;2022-09-21T03:06:00;99265.24;;;9.35;100.00
42003;BME280;27693;50.506;30.832;2022-09-21T03:07:03;99265.33;;;9.34;100.00
42003;BME280;27693;50.506;30.832;2022-09-21T03:08:05;99268.70;;;9.36;100.00
42003;BME280;27693;50.506;30.832;2022-09-21T03:09:08;99271.91;;;9.41;100.00
42003;BME280;27693;50.506;30.832;2022-09-21T03:10:11;99268.45;;;9.40;100.00
42003;BME280;27693;50.506;30.832;2022-09-21T03:11:16;99264.81;;;9.45;100.00
42003;BME280;27693;50.506;30.832;2022-09-21T03:12:19;99264.95;;;9.41;100.00
42003;BME280;27693;50.506;30.832;2022-09-21T03:13:21;99267.70;;;9.38;100.00
42003;BME280;27693;50.506;30.832;2022-09-21T03:14:24;99264.03;;;9.42;100.00
42003;BME280;27693;50.506;30.832;2022-09-21T03:15:26;99260.66;;;9.40;100.00
42003;BME280;27693;50.506;30.832;2022-09-21T03:16:28;99260.05;;;9.35;100.00
42003;BME280;27693;50.506;30.832;2022-09-21T03:17:30;99265.02;;;9.40;100.00
42003;BME280;27693;50.506;30.832;2022-09-21T03:18:33;99273.51;;;9.43;100.00
42003;BME280;27693;50.506;30.832;2022-09-21T03:19:35;99273.73;;;9.39;100.00
42003;BME280;27693;50.506;30.832;2022-09-21T03:20:44;99270.30;;;9.38;100.00
42003;BME280;27693;50.506;30.832;2022-09-21T03:21:46;99270.30;;;9.38;100.00
42003;BME280;27693;50.506;30.832;2022-09-21T03:22:48;99270.00;;;9.45;100.00
42003;BME280;27693;50.506;30.832;2022-09-21T03:23:50;99263.90;;;9.46;100.00
42003;BME280;27693;50.506;30.832;2022-09-21T03:24:52;99264.95;;;9.41;99.80
42003;BME280;27693;50.506;30.832;2022-09-21T03:25:54;99262.30;;;9.43;99.84
42003;BME280;27693;50.506;30.832;2022-09-21T03:26:56;99260.66;;;9.40;100.00
42003;BME280;27693;50.506;30.832;2022-09-21T03:27:58;99264.95;;;9.41;100.00
42003;BME280;27693;50.506;30.832;2022-09-21T03:29:01;99258.70;;;9.46;100.00
42003;BME280;27693;50.506;30.832;2022-09-21T03:30:03;99258.06;;;9.40;99.85
42003;BME280;27693;50.506;30.832;2022-09-21T03:31:08;99257.16;;;9.41;99.94
42003;BME280;27693;50.506;30.832;2022-09-21T03:32:11;99263.26;;;9.40;99.88
42003;BME280;27693;50.506;30.832;2022-09-21T03:33:13;99270.14;;;9.41;99.71
42003;BME280;27693;50.506;30.832;2022-09-21T03:34:15;99267.23;;;9.30;100.00
42003;BME280;27693;50.506;30.832;2022-09-21T03:35:18;99270.44;;;9.35;100.00
42003;BME280;27693;50.506;30.832;2022-09-21T03:36:20;99270.60;;;9.32;100.00
42003;BME280;27693;50.506;30.832;2022-09-21T03:37:23;99270.60;;;9.32;100.00
42003;BME280;27693;50.506;30.832;2022-09-21T03:38:25;99271.21;;;9.37;100.00
42003;BME280;27693;50.506;30.832;2022-09-21T03:39:27;99275.33;;;9.41;100.00
42003;BME280;27693;50.506;30.832;2022-09-21T03:40:29;99271.82;;;9.42;100.00
42003;BME280;27693;50.506;30.832;2022-09-21T03:41:32;99272.44;;;9.48;100.00
42003;BME280;27693;50.506;30.832;2022-09-21T03:42:34;99279.40;;;9.47;100.00
42003;BME280;27693;50.506;30.832;2022-09-21T03:43:36;99272.60;;;9.45;99.89
42003;BME280;27693;50.506;30.832;2022-09-21T03:44:38;99272.60;;;9.45;99.89
42003;BME280;27693;50.506;30.832;2022-09-21T03:45:40;99266.63;;;9.42;99.85
42003;BME280;27693;50.506;30.832;2022-09-21T03:46:42;99267.48;;;9.43;99.75
42003;BME280;27693;50.506;30.832;2022-09-21T03:47:45;99271.98;;;9.39;99.88
42003;BME280;27693;50.506;30.832;2022-09-21T03:48:48;99269.39;;;9.39;99.88
42003;BME280;27693;50.506;30.832;2022-09-21T03:49:49;99275.63;;;9.35;100.00
42003;BME280;27693;50.506;30.832;2022-09-21T03:50:52;99275.63;;;9.35;100.00
42003;BME280;27693;50.506;30.832;2022-09-21T03:51:54;99275.63;;;9.35;100.00
42003;BME280;27693;50.506;30.832;2022-09-21T03:52:57;99272.20;;;9.35;100.00
42003;BME280;27693;50.506;30.832;2022-09-21T03:53:59;99271.13;;;9.39;100.00
42003;BME280;27693;50.506;30.832;2022-09-21T03:55:01;99272.90;;;9.38;99.96
42003;BME280;27693;50.506;30.832;2022-09-21T03:56:03;99275.33;;;9.41;99.85
42003;BME280;27693;50.506;30.832;2022-09-21T03:57:05;99272.52;;;9.46;99.76
42003;BME280;27693;50.506;30.832;2022-09-21T03:58:07;99274.12;;;9.49;99.37
42003;BME280;27693;50.506;30.832;2022-09-21T03:59:10;99278.63;;;9.45;99.31
42003;BME280;27693;50.506;30.832;2022-09-21T04:00:16;99278.70;;;9.43;99.38
42003;BME280;27693;50.506;30.832;2022-09-21T04:01:19;99277.87;;;9.43;99.28
42003;BME280;27693;50.506;30.832;2022-09-21T04:02:21;99283.36;;;9.37;99.36
42003;BME280;27693;50.506;30.832;2022-09-21T04:03:23;99285.72;;;9.41;99.45
42003;BME280;27693;50.506;30.832;2022-09-21T04:04:29;99289.78;;;9.47;99.35
42003;BME280;27693;50.506;30.832;2022-09-21T04:05:31;99288.70;;;9.51;99.12
42003;BME280;27693;50.506;30.832;2022-09-21T04:06:33;99292.30;;;9.49;98.95
42003;BME280;27693;50.506;30.832;2022-09-21T04:07:36;99296.66;;;9.48;98.80
42003;BME280;27693;50.506;30.832;2022-09-21T04:08:39;99292.46;;;9.46;98.67
42003;BME280;27693;50.506;30.832;2022-09-21T04:09:41;99289.22;;;9.40;98.73
42003;BME280;27693;50.506;30.832;2022-09-21T04:10:44;99297.09;;;9.39;98.93
42003;BME280;27693;50.506;30.832;2022-09-21T04:11:46;99295.36;;;9.39;98.96
42003;BME280;27693;50.506;30.832;2022-09-21T04:12:48;99302.20;;;9.40;98.88
42003;BME280;27693;50.506;30.832;2022-09-21T04:13:51;99291.08;;;9.38;98.91
42003;BME280;27693;50.506;30.832;2022-09-21T04:14:54;99298.56;;;9.45;99.00
42003;BME280;27693;50.506;30.832;2022-09-21T04:15:56;99300.86;;;9.51;98.85
42003;BME280;27693;50.506;30.832;2022-09-21T04:16:58;99301.00;;;9.48;98.56
42003;BME280;27693;50.506;30.832;2022-09-21T04:18:00;99299.34;;;9.47;98.59
42003;BME280;27693;50.506;30.832;2022-09-21T04:19:02;99299.47;;;9.43;98.69
42003;BME280;27693;50.506;30.832;2022-09-21T04:20:06;99299.47;;;9.43;98.72
42003;BME280;27693;50.506;30.832;2022-09-21T04:21:09;99304.75;;;9.42;98.66
42003;BME280;27693;50.506;30.832;2022-09-21T04:22:11;99303.28;;;9.36;98.70
42003;BME280;27693;50.506;30.832;2022-09-21T04:23:13;99300.59;;;9.38;98.94
42003;BME280;27693;50.506;30.832;2022-09-21T04:24:17;99303.28;;;9.36;98.88
42003;BME280;27693;50.506;30.832;2022-09-21T04:25:21;99294.66;;;9.36;98.92
42003;BME280;27693;50.506;30.832;2022-09-21T04:26:32;99292.97;;;9.35;99.18
42003;BME280;27693;50.506;30.832;2022-09-21T04:27:36;99299.61;;;9.40;99.08
42003;BME280;27693;50.506;30.832;2022-09-21T04:28:40;99305.36;;;9.47;98.74
42003;BME280;27693;50.506;30.832;2022-09-21T04:29:44;99297.36;;;9.52;98.54
42003;BME280;27693;50.506;30.832;2022-09-21T04:30:53;99295.11;;;9.44;98.35
42003;BME280;27693;50.506;30.832;2022-09-21T04:31:57;99294.98;;;9.47;98.48
42003;BME280;27693;50.506;30.832;2022-09-21T04:33:01;99295.97;;;9.45;98.56
42003;BME280;27693;50.506;30.832;2022-09-21T04:34:05;99291.60;;;9.45;98.43
42003;BME280;27693;50.506;30.832;2022-09-21T04:35:09;99293.29;;;9.46;98.31
42003;BME280;27693;50.506;30.832;2022-09-21T04:36:14;99289.91;;;9.44;98.42
42003;BME280;27693;50.506;30.832;2022-09-21T04:37:18;99292.30;;;9.49;98.51
42003;BME280;27693;50.506;30.832;2022-09-21T04:38:22;99292.46;;;9.46;98.32
42003;BME280;27693;50.506;30.832;2022-09-21T04:39:26;99291.08;;;9.38;98.56
42003;BME280;27693;50.506;30.832;2022-09-21T04:40:30;99297.39;;;9.33;98.97
42003;BME280;27693;50.506;30.832;2022-09-21T04:41:32;99293.05;;;9.33;99.00
42003;BME280;27693;50.506;30.832;2022-09-21T04:42:36;99291.16;;;9.37;99.00
42003;BME280;27693;50.506;30.832;2022-09-21T04:43:40;99294.09;;;9.29;99.02
42003;BME280;27693;50.506;30.832;2022-09-21T04:44:42;99289.52;;;9.34;99.12
42003;BME280;27693;50.506;30.832;2022-09-21T04:45:45;99291.41;;;9.31;98.92
42003;BME280;27693;50.506;30.832;2022-09-21T04:46:48;99297.30;;;9.34;98.93
42003;BME280;27693;50.506;30.832;2022-09-21T04:47:50;99291.20;;;9.35;98.73
42003;BME280;27693;50.506;30.832;2022-09-21T04:48:52;99295.65;;;9.33;98.68
42003;BME280;27693;50.506;30.832;2022-09-21T04:49:57;99291.98;;;9.37;98.74
42003;BME280;27693;50.506;30.832;2022-09-21T04:50:58;99288.26;;;9.43;98.62
42003;BME280;27693;50.506;30.832;2022-09-21T04:52:00;99289.30;;;9.39;98.42
42003;BME280;27693;50.506;30.832;2022-09-21T04:53:03;99291.81;;;9.40;98.51
42003;BME280;27693;50.506;30.832;2022-09-21T04:54:05;99293.45;;;9.43;98.53
42003;BME280;27693;50.506;30.832;2022-09-21T04:55:07;99300.38;;;9.42;98.53
42003;BME280;27693;50.506;30.832;2022-09-21T04:56:13;99292.59;;;9.42;98.40
42003;BME280;27693;50.506;30.832;2022-09-21T04:57:15;99287.40;;;9.42;98.33
42003;BME280;27693;50.506;30.832;2022-09-21T04:58:17;99290.21;;;9.38;98.36
42003;BME280;27693;50.506;30.832;2022-09-21T04:59:21;99290.91;;;9.41;98.46
42003;BME280;27693;50.506;30.832;2022-09-21T05:00:23;99293.45;;;9.43;98.13
42003;BME280;27693;50.506;30.832;2022-09-21T05:01:25;99290.30;;;9.36;98.28
42003;BME280;27693;50.506;30.832;2022-09-21T05:02:29;99293.19;;;9.30;98.40
42003;BME280;27693;50.506;30.832;2022-09-21T05:03:30;99282.88;;;9.29;98.74
42003;BME280;27693;50.506;30.832;2022-09-21T05:04:32;99297.47;;;9.31;98.79
42003;BME280;27693;50.506;30.832;2022-09-21T05:05:34;99296.39;;;9.35;98.57
42003;BME280;27693;50.506;30.832;2022-09-21T05:06:36;99298.08;;;9.36;98.60
42003;BME280;27693;50.506;30.832;2022-09-21T05:07:38;99296.18;;;9.40;98.54
42003;BME280;27693;50.506;30.832;2022-09-21T05:08:40;99297.02;;;9.40;98.39
42003;BME280;27693;50.506;30.832;2022-09-21T05:09:42;99300.38;;;9.42;98.44
42003;BME280;27693;50.506;30.832;2022-09-21T05:10:44;99303.59;;;9.48;98.21
42003;BME280;27693;50.506;30.832;2022-09-21T05:11:46;99309.43;;;9.53;98.05
42003;BME280;27693;50.506;30.832;2022-09-21T05:12:48;99304.93;;;9.56;97.86
42003;BME280;27693;50.506;30.832;2022-09-21T05:13:50;99297.19;;;9.55;97.60
42003;BME280;27693;50.506;30.832;2022-09-21T05:14:52;99310.05;;;9.58;97.46
42003;BME280;27693;50.506;30.832;2022-09-21T05:15:54;99310.52;;;9.66;97.02
42003;BME280;27693;50.506;30.832;2022-09-21T05:16:58;99310.52;;;9.66;97.02
42003;BME280;27693;50.506;30.832;2022-09-21T05:17:59;99314.16;;;9.62;97.17
42003;BME280;27693;50.506;30.832;2022-09-21T05:19:02;99320.00;;;9.67;97.04
42003;BME280;27693;50.506;30.832;2022-09-21T05:20:05;99314.33;;;9.59;97.05
42003;BME280;27693;50.506;30.832;2022-09-21T05:21:08;99314.33;;;9.59;97.05
42003;BME280;27693;50.506;30.832;2022-09-21T05:22:13;99315.77;;;9.65;97.16
42003;BME280;27693;50.506;30.832;2022-09-21T05:23:16;99319.14;;;9.67;96.73
42003;BME280;27693;50.506;30.832;2022-09-21T05:24:18;99311.34;;;9.67;96.56
42003;BME280;27693;50.506;30.832;2022-09-21T05:25:20;99321.04;;;9.63;96.75
42003;BME280;27693;50.506;30.832;2022-09-21T05:26:23;99317.84;;;9.58;96.99
42003;BME280;27693;50.506;30.832;2022-09-21T05:27:25;99317.14;;;9.54;97.42
42003;BME280;27693;50.506;30.832;2022-09-21T05:28:28;99320.11;;;9.47;97.68
42003;BME280;27693;50.506;30.832;2022-09-21T05:29:30;99319.62;;;9.38;97.79
42003;BME280;27693;50.506;30.832;2022-09-21T05:30:33;99322.77;;;9.45;98.05
42003;BME280;27693;50.506;30.832;2022-09-21T05:31:47;99327.73;;;9.50;97.72
42003;BME280;27693;50.506;30.832;2022-09-21T05:33:00;99328.16;;;9.40;98.05
42003;BME280;27693;50.506;30.832;2022-09-21T05:38:38;99329.23;;;9.36;98.45
42003;BME280;27693;50.506;30.832;2022-09-21T05:39:40;99321.77;;;9.48;98.43
42003;BME280;27693;50.506;30.832;2022-09-21T05:40:43;99326.34;;;9.42;98.17
42003;BME280;27693;50.506;30.832;2022-09-21T05:41:47;99322.77;;;9.45;97.92
42003;BME280;27693;50.506;30.832;2022-09-21T05:42:49;99321.77;;;9.48;97.65
42003;BME280;27693;50.506;30.832;2022-09-21T05:43:52;99321.64;;;9.51;97.54
42003;BME280;27693;50.506;30.832;2022-09-21T05:44:55;99328.22;;;9.58;97.55
42003;BME280;27693;50.506;30.832;2022-09-21T05:46:08;99319.36;;;9.62;97.31
42003;BME280;27693;50.506;30.832;2022-09-21T05:48:22;99329.45;;;9.68;97.02
42003;BME280;27693;50.506;30.832;2022-09-21T05:52:23;99329.64;;;9.46;98.04
42003;BME280;27693;50.506;30.832;2022-09-21T05:58:20;99340.11;;;9.45;98.08
42003;BME280;27693;50.506;30.832;2022-09-21T06:04:27;99336.66;;;9.44;98.72
42003;BME280;27693;50.506;30.832;2022-09-21T06:05:29;99332.61;;;9.38;98.63
42003;BME280;27693;50.506;30.832;2022-09-21T06:06:32;99336.95;;;9.38;98.94
42003;BME280;27693;50.506;30.832;2022-09-21T06:07:34;99332.61;;;9.38;99.11
42003;BME280;27693;50.506;30.832;2022-09-21T06:08:36;99339.20;;;9.46;98.92
42003;BME280;27693;50.506;30.832;2022-09-21T06:09:38;99341.31;;;9.37;98.94
42003;BME280;27693;50.506;30.832;2022-09-21T06:10:42;99341.23;;;9.39;99.23
42003;BME280;27693;50.506;30.832;2022-09-21T06:11:44;99338.29;;;9.47;99.25
42003;BME280;27693;50.506;30.832;2022-09-21T06:12:46;99345.14;;;9.48;99.01
42003;BME280;27693;50.506;30.832;2022-09-21T06:13:48;99340.42;;;9.56;98.87
42003;BME280;27693;50.506;30.832;2022-09-21T06:14:50;99342.28;;;9.54;98.37
42003;BME280;27693;50.506;30.832;2022-09-21T06:15:54;99339.52;;;9.57;98.45
42003;BME280;27693;50.506;30.832;2022-09-21T06:16:57;99343.80;;;9.58;98.45
42003;BME280;27693;50.506;30.832;2022-09-21T06:17:59;99340.99;;;9.63;98.26
42003;BME280;27693;50.506;30.832;2022-09-21T06:19:01;99343.29;;;9.69;98.12
42003;BME280;27693;50.506;30.832;2022-09-21T06:20:03;99350.70;;;9.77;98.01
42003;BME280;27693;50.506;30.832;2022-09-21T06:21:07;99346.89;;;9.84;97.61